createdAt,value
2023-05-11T00:00:22.183Z,99528.16
2023-05-11T00:01:07.445Z,99537.38
2023-05-11T00:01:49.160Z,99526.31
2023-05-11T00:02:30.994Z,99538.59
2023-05-11T00:03:13.102Z,99540.22
2023-05-11T00:03:56.221Z,99538.19
2023-05-11T00:04:38.245Z,99517.75
2023-05-11T00:05:20.170Z,99536.97
2023-05-11T00:06:01.980Z,99519.78
2023-05-11T00:06:43.650Z,99529.19
2023-05-11T00:07:25.380Z,99522.63
2023-05-11T00:08:07.136Z,99527.53
2023-05-11T00:08:48.884Z,99537.56
2023-05-11T00:09:30.804Z,99534.09
2023-05-11T00:10:12.492Z,99534.50
2023-05-11T00:10:54.212Z,99534.09
2023-05-11T00:11:36.224Z,99528.75
2023-05-11T00:12:17.991Z,99523.44
2023-05-11T00:12:59.867Z,99518.75
2023-05-11T00:13:41.608Z,99533.06
2023-05-11T00:14:23.405Z,99520.41
2023-05-11T00:15:05.696Z,99531.44
2023-05-11T00:15:47.489Z,99530.00
2023-05-11T00:16:29.457Z,99534.91
2023-05-11T00:17:11.940Z,99524.06
2023-05-11T00:17:53.856Z,99513.84
2023-05-11T00:18:35.651Z,99535.94
2023-05-11T00:19:17.417Z,99542.06
2023-05-11T00:19:59.327Z,99536.34
2023-05-11T00:20:41.009Z,99535.31
2023-05-11T00:21:22.963Z,99537.38
2023-05-11T00:22:04.694Z,99530.00
2023-05-11T00:22:46.572Z,99530.81
2023-05-11T00:23:28.409Z,99533.47
2023-05-11T00:24:10.134Z,99527.13
2023-05-11T00:24:51.822Z,99527.13
2023-05-11T00:25:33.598Z,99520.78
2023-05-11T00:26:15.339Z,99544.13
2023-05-11T00:26:59.026Z,99529.59
2023-05-11T00:27:45.707Z,99542.06
2023-05-11T00:28:28.170Z,99520.59
2023-05-11T00:29:09.996Z,99537.56
2023-05-11T00:29:51.824Z,99517.72
2023-05-11T00:30:33.741Z,99532.88
2023-05-11T00:31:15.362Z,99527.94
2023-05-11T00:31:57.265Z,99528.75
2023-05-11T00:32:39.050Z,99517.72
2023-05-11T00:33:21.036Z,99517.31
2023-05-11T00:34:02.700Z,99526.94
2023-05-11T00:34:44.437Z,99519.97
2023-05-11T00:35:26.290Z,99526.72
2023-05-11T00:36:08.135Z,99533.25
2023-05-11T00:36:49.816Z,99523.47
2023-05-11T00:37:31.552Z,99528.56
2023-05-11T00:38:15.265Z,99524.06
2023-05-11T00:38:57.079Z,99531.00
2023-05-11T00:39:40.674Z,99519.97
2023-05-11T00:40:22.692Z,99516.09
2023-05-11T00:41:04.456Z,99517.94
2023-05-11T00:41:46.181Z,99532.44
2023-05-11T00:42:27.846Z,99502.19
2023-05-11T00:43:10.382Z,99525.09
2023-05-11T00:43:52.086Z,99519.97
2023-05-11T00:44:33.812Z,99528.38
2023-05-11T00:45:15.603Z,99532.88
2023-05-11T00:45:57.285Z,99529.59
2023-05-11T00:46:39.721Z,99513.03
2023-05-11T00:47:21.536Z,99515.25
2023-05-11T00:48:03.828Z,99523.06
2023-05-11T00:48:45.729Z,99513.63
2023-05-11T00:49:28.447Z,99518.94
2023-05-11T00:50:10.586Z,99532.06
2023-05-11T00:50:52.754Z,99529.41
2023-05-11T00:51:35.981Z,99520.59
2023-05-11T00:52:17.709Z,99507.72
2023-05-11T00:52:59.951Z,99526.75
2023-05-11T00:53:41.680Z,99508.09
2023-05-11T00:54:23.582Z,99527.56
2023-05-11T00:55:05.831Z,99528.38
2023-05-11T00:55:47.579Z,99510.19
2023-05-11T00:56:29.367Z,99505.06
2023-05-11T00:57:14.635Z,99528.19
2023-05-11T00:57:56.446Z,99507.28
2023-05-11T00:58:38.240Z,99530.59
2023-05-11T00:59:19.957Z,99510.16
2023-05-11T01:00:02.933Z,99521.84
2023-05-11T01:00:47.871Z,99513.84
2023-05-11T01:01:30.964Z,99515.06
2023-05-11T01:02:12.783Z,99501.78
2023-05-11T01:02:54.766Z,99518.75
2023-05-11T01:03:37.249Z,99498.69
2023-05-11T01:04:19.404Z,99521.81
2023-05-11T01:05:01.901Z,99510.16
2023-05-11T01:05:49.811Z,99504.84
2023-05-11T01:06:44.703Z,99510.56
2023-05-11T01:07:35.320Z,99519.75
2023-05-11T01:08:31.090Z,99518.34
2023-05-11T01:09:27.788Z,99520.19
2023-05-11T01:10:31.505Z,99518.75
2023-05-11T01:11:31.646Z,99518.94
2023-05-11T01:13:14.824Z,99520.56
2023-05-11T01:14:12.667Z,99510.53
2023-05-11T01:15:01.897Z,99503.59
2023-05-11T01:15:52.404Z,99501.34
2023-05-11T01:16:44.584Z,99520.16
2023-05-11T01:17:37.821Z,99510.53
2023-05-11T01:18:22.072Z,99517.09
2023-05-11T01:19:11.358Z,99508.28
2023-05-11T01:20:02.668Z,99504.19
2023-05-11T01:20:48.350Z,99515.88
2023-05-11T01:21:33.333Z,99515.06
2023-05-11T01:22:36.429Z,99512.38
2023-05-11T01:23:33.440Z,99519.53
2023-05-11T01:24:27.105Z,99519.53
2023-05-11T01:25:21.855Z,99505.44
2023-05-11T01:26:28.010Z,99504.63
2023-05-11T01:27:21.594Z,99506.06
2023-05-11T01:28:15.797Z,99518.13
2023-05-11T01:29:22.340Z,99512.63
2023-05-11T01:30:22.988Z,99505.44
2023-05-11T01:31:10.706Z,99512.63
2023-05-11T01:31:54.795Z,99501.97
2023-05-11T01:32:41.652Z,99516.28
2023-05-11T01:33:37.226Z,99502.16
2023-05-11T01:34:31.868Z,99512.38
2023-05-11T01:35:22.053Z,99512.19
2023-05-11T01:36:09.368Z,99499.53
2023-05-11T01:37:00.712Z,99510.78
2023-05-11T01:37:47.855Z,99504.63
2023-05-11T01:38:33.515Z,99491.94
2023-05-11T01:39:20.443Z,99516.91
2023-05-11T01:40:08.780Z,99516.50
2023-05-11T01:40:54.571Z,99506.69
2023-05-11T01:41:40.061Z,99520.81
2023-05-11T01:42:26.290Z,99515.50
2023-05-11T01:43:12.610Z,99506.28
2023-05-11T01:43:58.477Z,99508.72
2023-05-11T01:44:42.858Z,99517.91
2023-05-11T01:45:27.775Z,99501.16
2023-05-11T01:46:10.822Z,99496.66
2023-05-11T01:46:53.298Z,99518.13
2023-05-11T01:47:37.306Z,99502.56
2023-05-11T01:48:23.623Z,99488.28
2023-05-11T01:49:09.815Z,99513.44
2023-05-11T01:49:54.163Z,99497.06
2023-05-11T01:50:37.712Z,99503.19
2023-05-11T01:51:20.254Z,99513.00
2023-05-11T01:52:03.963Z,99510.34
2023-05-11T01:52:48.260Z,99509.72
2023-05-11T01:53:34.386Z,99507.88
2023-05-11T01:54:18.886Z,99509.13
2023-05-11T01:55:03.845Z,99485.41
2023-05-11T01:55:48.668Z,99481.28
2023-05-11T01:56:33.228Z,99512.63
2023-05-11T01:57:16.844Z,99515.88
2023-05-11T01:58:00.154Z,99518.53
2023-05-11T01:58:43.686Z,99509.72
2023-05-11T01:59:26.533Z,99515.47
2023-05-11T02:00:09.744Z,99516.09
2023-05-11T02:01:00.210Z,99505.03
2023-05-11T02:01:41.978Z,99496.88
2023-05-11T02:02:26.665Z,99495.22
2023-05-11T02:03:09.720Z,99508.94
2023-05-11T02:03:52.567Z,99509.75
2023-05-11T02:04:37.525Z,99504.22
2023-05-11T02:05:22.265Z,99516.50
2023-05-11T02:06:09.652Z,99494.59
2023-05-11T02:06:55.990Z,99517.91
2023-05-11T02:07:42.065Z,99498.91
2023-05-11T02:08:29.717Z,99504.63
2023-05-11T02:09:14.790Z,99513.41
2023-05-11T02:09:58.300Z,99497.06
2023-05-11T02:10:41.810Z,99505.84
2023-05-11T02:11:26.561Z,99510.78
2023-05-11T02:12:09.853Z,99513.63
2023-05-11T02:12:54.263Z,99513.81
2023-05-11T02:13:41.800Z,99509.97
2023-05-11T02:14:29.271Z,99499.06
2023-05-11T02:15:12.214Z,99508.28
2023-05-11T02:15:57.035Z,99506.03
2023-05-11T02:16:39.437Z,99504.63
2023-05-11T02:17:23.431Z,99505.00
2023-05-11T02:18:09.622Z,99502.34
2023-05-11T02:18:52.952Z,99517.69
2023-05-11T02:19:37.675Z,99516.88
2023-05-11T02:20:21.223Z,99513.41
2023-05-11T02:21:03.966Z,99516.88
2023-05-11T02:21:49.115Z,99519.72
2023-05-11T02:22:32.528Z,99507.44
2023-05-11T02:23:16.389Z,99518.06
2023-05-11T02:24:01.401Z,99519.72
2023-05-11T02:24:43.565Z,99510.53
2023-05-11T02:25:26.649Z,99517.28
2023-05-11T02:26:09.290Z,99504.78
2023-05-11T02:26:51.085Z,99518.94
2023-05-11T02:27:33.073Z,99514.63
2023-05-11T02:28:15.101Z,99502.13
2023-05-11T02:28:57.379Z,99521.75
2023-05-11T02:29:39.122Z,99516.63
2023-05-11T02:30:21.208Z,99512.34
2023-05-11T02:31:09.374Z,99516.44
2023-05-11T02:31:59.684Z,99514.19
2023-05-11T02:32:48.941Z,99519.69
2023-05-11T02:33:35.917Z,99508.66
2023-05-11T02:34:25.431Z,99513.13
2023-05-11T02:35:24.089Z,99517.41
2023-05-11T02:36:08.157Z,99515.34
2023-05-11T02:36:53.896Z,99526.41
2023-05-11T02:37:43.393Z,99509.66
2023-05-11T02:38:33.509Z,99510.66
2023-05-11T02:39:23.492Z,99510.84
2023-05-11T02:40:15.062Z,99500.00
2023-05-11T02:41:00.579Z,99514.53
2023-05-11T02:41:46.096Z,99506.13
2023-05-11T02:42:30.936Z,99518.19
2023-05-11T02:43:18.778Z,99515.16
2023-05-11T02:44:08.626Z,99517.81
2023-05-11T02:44:58.840Z,99518.19
2023-05-11T02:45:44.580Z,99495.91
2023-05-11T02:46:29.513Z,99526.16
2023-05-11T02:47:15.018Z,99520.84
2023-05-11T02:47:58.870Z,99523.13
2023-05-11T02:48:47.012Z,99513.94
2023-05-11T02:49:32.424Z,99517.22
2023-05-11T02:50:18.214Z,99525.00
2023-05-11T02:51:02.573Z,99512.69
2023-05-11T02:51:50.843Z,99488.78
2023-05-11T02:52:34.571Z,99525.63
2023-05-11T02:53:17.922Z,99522.72
2023-05-11T02:54:01.467Z,99522.56
2023-05-11T02:54:46.835Z,99512.72
2023-05-11T02:55:32.128Z,99525.66
2023-05-11T02:56:14.118Z,99507.22
2023-05-11T02:56:56.732Z,99512.94
2023-05-11T02:57:39.106Z,99527.50
2023-05-11T02:58:23.018Z,99517.88
2023-05-11T02:59:12.534Z,99532.59
2023-05-11T02:59:54.540Z,99514.41
2023-05-11T03:00:36.293Z,99519.72
2023-05-11T03:01:18.352Z,99517.25
2023-05-11T03:02:00.673Z,99526.06
2023-05-11T03:02:42.684Z,99517.69
2023-05-11T03:03:25.073Z,99528.31
2023-05-11T03:04:07.038Z,99505.81
2023-05-11T03:04:48.693Z,99520.97
2023-05-11T03:05:30.490Z,99527.72
2023-05-11T03:06:12.361Z,99501.13
2023-05-11T03:06:54.213Z,99500.09
2023-05-11T03:07:36.413Z,99518.31
2023-05-11T03:08:18.425Z,99513.19
2023-05-11T03:09:03.953Z,99514.44
2023-05-11T03:09:47.899Z,99514.00
2023-05-11T03:10:30.243Z,99515.03
2023-05-11T03:11:14.946Z,99516.88
2023-05-11T03:11:58.343Z,99521.16
2023-05-11T03:12:40.356Z,99526.91
2023-05-11T03:13:24.712Z,99523.00
2023-05-11T03:14:09.161Z,99523.84
2023-05-11T03:14:58.563Z,99523.66
2023-05-11T03:15:41.423Z,99513.19
2023-05-11T03:16:24.542Z,99509.50
2023-05-11T03:17:06.889Z,99520.34
2023-05-11T03:17:51.071Z,99521.13
2023-05-11T03:18:34.377Z,99522.19
2023-05-11T03:19:16.612Z,99523.78
2023-05-11T03:20:03.179Z,99524.41
2023-05-11T03:20:47.478Z,99529.53
2023-05-11T03:21:29.409Z,99525.66
2023-05-11T03:22:11.809Z,99510.50
2023-05-11T03:22:54.827Z,99522.38
2023-05-11T03:23:37.862Z,99520.09
2023-05-11T03:24:23.605Z,99532.22
2023-05-11T03:25:07.346Z,99523.41
2023-05-11T03:25:50.577Z,99530.38
2023-05-11T03:26:34.248Z,99518.50
2023-05-11T03:27:17.698Z,99524.25
2023-05-11T03:28:02.084Z,99528.72
2023-05-11T03:28:47.130Z,99533.03
2023-05-11T03:29:31.582Z,99512.38
2023-05-11T03:30:15.726Z,99527.28
2023-05-11T03:31:00.731Z,99515.63
2023-05-11T03:31:42.707Z,99519.72
2023-05-11T03:32:24.875Z,99525.44
2023-05-11T03:33:12.115Z,99518.91
2023-05-11T03:33:54.225Z,99512.94
2023-05-11T03:34:35.930Z,99513.56
2023-05-11T03:35:17.926Z,99526.06
2023-05-11T03:36:01.561Z,99530.16
2023-05-11T03:36:49.088Z,99519.53
2023-05-11T03:37:31.742Z,99508.84
2023-05-11T03:38:15.742Z,99522.56
2023-05-11T03:38:59.100Z,99507.63
2023-05-11T03:39:50.271Z,99522.72
2023-05-11T03:40:37.501Z,99519.88
2023-05-11T03:41:21.413Z,99517.00
2023-05-11T03:42:08.587Z,99518.63
2023-05-11T03:42:54.502Z,99526.63
2023-05-11T03:43:38.733Z,99523.78
2023-05-11T03:44:22.462Z,99510.28
2023-05-11T03:45:08.932Z,99521.72
2023-05-11T03:45:53.896Z,99522.34
2023-05-11T03:46:40.263Z,99518.03
2023-05-11T03:47:24.874Z,99525.00
2023-05-11T03:48:08.197Z,99513.75
2023-05-11T03:48:51.183Z,99514.16
2023-05-11T03:49:37.975Z,99516.22
2023-05-11T03:50:21.251Z,99504.97
2023-05-11T03:51:05.068Z,99507.41
2023-05-11T03:51:50.569Z,99514.59
2023-05-11T03:52:35.892Z,99513.59
2023-05-11T03:53:18.389Z,99511.75
2023-05-11T03:54:00.211Z,99498.03
2023-05-11T03:54:46.293Z,99495.56
2023-05-11T03:55:28.267Z,99511.09
2023-05-11T03:56:10.100Z,99510.88
2023-05-11T03:56:52.406Z,99494.28
2023-05-11T03:57:34.816Z,99497.78
2023-05-11T03:58:17.153Z,99497.97
2023-05-11T03:58:59.134Z,99503.28
2023-05-11T03:59:41.131Z,99497.75
2023-05-11T04:00:23.035Z,99492.66
2023-05-11T04:01:05.590Z,99499.59
2023-05-11T04:01:53.913Z,99512.88
2023-05-11T04:02:36.247Z,99516.16
2023-05-11T04:03:18.295Z,99506.50
2023-05-11T04:04:00.196Z,99496.50
2023-05-11T04:04:42.016Z,99491.59
2023-05-11T04:05:23.730Z,99510.41
2023-05-11T04:06:08.831Z,99499.38
2023-05-11T04:06:51.496Z,99497.34
2023-05-11T04:07:37.807Z,99513.13
2023-05-11T04:08:19.457Z,99507.56
2023-05-11T04:09:01.125Z,99438.38
2023-05-11T04:09:42.858Z,99507.56
2023-05-11T04:10:24.645Z,99499.84
2023-05-11T04:11:06.380Z,99514.56
2023-05-11T04:11:50.807Z,99514.38
2023-05-11T04:12:32.675Z,99499.41
2023-05-11T04:13:14.431Z,99513.97
2023-05-11T04:13:57.155Z,99511.47
2023-05-11T04:14:42.242Z,99516.81
2023-05-11T04:15:24.075Z,99507.81
2023-05-11T04:16:06.359Z,99517.41
2023-05-11T04:16:48.042Z,99507.81
2023-05-11T04:17:29.700Z,99519.28
2023-05-11T04:18:14.288Z,99512.34
2023-05-11T04:18:56.283Z,99519.69
2023-05-11T04:19:37.985Z,99515.19
2023-05-11T04:20:22.261Z,99493.91
2023-05-11T04:21:04.126Z,99460.94
2023-05-11T04:21:46.728Z,99504.72
2023-05-11T04:22:28.402Z,99499.84
2023-05-11T04:23:10.685Z,99502.06
2023-05-11T04:23:52.377Z,99513.34
2023-05-11T04:24:36.940Z,99519.88
2023-05-11T04:25:18.553Z,99518.84
2023-05-11T04:26:00.237Z,99518.84
2023-05-11T04:26:41.829Z,99507.19
2023-05-11T04:27:24.738Z,99491.44
2023-05-11T04:28:06.328Z,99515.59
2023-05-11T04:28:48.010Z,99506.16
2023-05-11T04:29:32.332Z,99513.56
2023-05-11T04:30:14.158Z,99515.81
2023-05-11T04:30:57.385Z,99516.84
2023-05-11T04:31:42.054Z,99497.59
2023-05-11T04:32:23.761Z,99509.88
2023-05-11T04:33:05.659Z,99512.09
2023-05-11T04:33:47.263Z,99481.63
2023-05-11T04:34:29.317Z,99503.75
2023-05-11T04:35:11.150Z,99502.53
2023-05-11T04:35:55.058Z,99509.69
2023-05-11T04:36:37.639Z,99521.75
2023-05-11T04:37:20.325Z,99520.53
2023-05-11T04:38:02.044Z,99504.78
2023-05-11T04:38:43.767Z,99517.47
2023-05-11T04:39:28.794Z,99520.56
2023-05-11T04:40:10.918Z,99511.97
2023-05-11T04:40:57.166Z,99520.75
2023-05-11T04:41:39.112Z,99523.22
2023-05-11T04:42:21.334Z,99522.19
2023-05-11T04:43:06.004Z,99522.81
2023-05-11T04:43:47.707Z,99515.47
2023-05-11T04:44:29.358Z,99504.63
2023-05-11T04:45:11.396Z,99516.88
2023-05-11T04:45:52.980Z,99504.63
2023-05-11T04:46:39.135Z,99525.06
2023-05-11T04:47:21.751Z,99503.78
2023-05-11T04:48:07.002Z,99508.28
2023-05-11T04:48:48.604Z,99460.38
2023-05-11T04:49:30.410Z,99519.72
2023-05-11T04:50:12.727Z,99513.78
2023-05-11T04:50:55.066Z,99516.63
2023-05-11T04:51:39.421Z,99510.09
2023-05-11T04:52:21.479Z,99521.13
2023-05-11T04:53:04.417Z,99514.59
2023-05-11T04:53:46.285Z,99516.88
2023-05-11T04:54:27.994Z,99493.75
2023-05-11T04:55:13.084Z,99505.63
2023-05-11T04:55:54.759Z,99458.31
2023-05-11T04:56:40.510Z,99512.56
2023-05-11T04:57:22.063Z,99517.28
2023-05-11T04:58:03.757Z,99444.22
2023-05-11T04:58:45.492Z,99513.63
2023-05-11T04:59:27.214Z,99514.63
2023-05-11T05:00:09.918Z,99511.56
2023-05-11T05:00:51.611Z,99448.16
2023-05-11T05:01:34.235Z,99511.56
2023-05-11T05:02:17.351Z,99514.25
2023-05-11T05:02:59.940Z,99514.88
2023-05-11T05:03:41.636Z,99479.44
2023-05-11T05:04:23.258Z,99477.22
2023-05-11T05:05:05.281Z,99507.50
2023-05-11T05:05:46.888Z,99515.69
2023-05-11T05:06:28.604Z,99494.81
2023-05-11T05:07:12.588Z,99515.91
2023-05-11T05:07:54.291Z,99515.88
2023-05-11T05:08:35.841Z,99514.47
2023-05-11T05:09:17.692Z,99504.63
2023-05-11T05:09:59.370Z,99436.34
2023-05-11T05:10:41.127Z,99510.38
2023-05-11T05:11:22.844Z,99483.56
2023-05-11T05:12:04.662Z,99462.72
2023-05-11T05:12:46.712Z,99497.47
2023-05-11T05:13:28.404Z,99525.09
2023-05-11T05:14:12.956Z,99509.56
2023-05-11T05:14:54.588Z,99531.25
2023-05-11T05:15:36.259Z,99512.41
2023-05-11T05:16:20.310Z,99514.06
2023-05-11T05:17:01.958Z,99475.78
2023-05-11T05:17:44.350Z,99497.88
2023-05-11T05:18:26.177Z,99515.47
2023-05-11T05:19:12.707Z,99519.38
2023-05-11T05:19:54.421Z,99517.53
2023-05-11T05:20:36.273Z,99497.25
2023-05-11T05:21:17.880Z,99503.81
2023-05-11T05:22:03.141Z,99518.72
2023-05-11T05:22:46.327Z,99521.97
2023-05-11T05:23:28.151Z,99505.84
2023-05-11T05:24:11.723Z,99522.59
2023-05-11T05:24:53.899Z,99517.06
2023-05-11T05:25:35.587Z,99469.38
2023-05-11T05:26:17.340Z,99508.50
2023-05-11T05:27:03.359Z,99457.16
2023-05-11T05:27:50.333Z,99521.81
2023-05-11T05:28:35.862Z,99521.41
2023-05-11T05:29:17.770Z,99473.53
2023-05-11T05:30:01.961Z,99522.66
2023-05-11T05:30:44.302Z,99516.25
2023-05-11T05:31:26.189Z,99523.44
2023-05-11T05:32:10.748Z,99504.81
2023-05-11T05:32:52.415Z,99459.63
2023-05-11T05:33:36.309Z,99509.75
2023-05-11T05:34:20.648Z,99526.09
2023-05-11T05:35:03.211Z,99517.31
2023-05-11T05:35:46.588Z,99525.50
2023-05-11T05:36:28.612Z,99529.19
2023-05-11T05:37:10.218Z,99507.72
2023-05-11T05:37:51.896Z,99532.69
2023-05-11T05:38:33.553Z,99503.41
2023-05-11T05:39:18.436Z,99521.63
2023-05-11T05:40:00.146Z,99542.69
2023-05-11T05:40:41.754Z,99522.84
2023-05-11T05:41:26.111Z,99533.25
2023-05-11T05:42:08.511Z,99531.84
2023-05-11T05:42:50.724Z,99526.53
2023-05-11T05:43:35.800Z,99531.03
2023-05-11T05:44:17.454Z,99524.25
2023-05-11T05:44:59.083Z,99534.09
2023-05-11T05:45:40.689Z,99539.84
2023-05-11T05:46:22.363Z,99527.53
2023-05-11T05:47:05.340Z,99542.28
2023-05-11T05:47:49.116Z,99540.66
2023-05-11T05:48:31.406Z,99522.63
2023-05-11T05:49:13.890Z,99543.50
2023-05-11T05:49:55.661Z,99540.44
2023-05-11T05:50:37.670Z,99539.63
2023-05-11T05:51:19.714Z,99526.94
2023-05-11T05:52:01.980Z,99543.94
2023-05-11T05:52:44.061Z,99518.34
2023-05-11T05:53:29.103Z,99503.00
2023-05-11T05:54:11.362Z,99550.88
2023-05-11T05:54:52.987Z,99493.19
2023-05-11T05:55:35.103Z,99544.72
2023-05-11T05:56:18.621Z,99547.19
2023-05-11T05:57:00.450Z,99548.41
2023-05-11T05:57:42.130Z,99551.06
2023-05-11T05:58:24.758Z,99547.19
2023-05-11T05:59:08.856Z,99545.78
2023-05-11T05:59:51.422Z,99537.38
2023-05-11T06:00:36.126Z,99545.34
2023-05-11T06:01:22.972Z,99532.84
2023-05-11T06:02:06.375Z,99503.59
2023-05-11T06:02:48.370Z,99540.00
2023-05-11T06:03:37.614Z,99498.06
2023-05-11T06:04:20.216Z,99557.81
2023-05-11T06:05:02.820Z,99554.13
2023-05-11T06:05:46.124Z,99557.22
2023-05-11T06:06:27.789Z,99535.50
2023-05-11T06:07:09.411Z,99561.09
2023-05-11T06:08:01.781Z,99513.44
2023-05-11T06:08:51.628Z,99559.28
2023-05-11T06:09:33.301Z,99555.38
2023-05-11T06:10:14.997Z,99541.47
2023-05-11T06:10:56.757Z,99544.13
2023-05-11T06:11:41.719Z,99541.03
2023-05-11T06:12:26.827Z,99560.69
2023-05-11T06:13:10.248Z,99554.13
2023-05-11T06:13:53.634Z,99556.78
2023-05-11T06:14:38.168Z,99559.44
2023-05-11T06:15:19.756Z,99553.31
2023-05-11T06:16:05.919Z,99551.28
2023-05-11T06:16:49.460Z,99553.31
2023-05-11T06:17:31.073Z,99552.28
2023-05-11T06:18:12.878Z,99552.28
2023-05-11T06:19:00.042Z,99549.66
2023-05-11T06:19:42.513Z,99543.28
2023-05-11T06:20:24.602Z,99556.59
2023-05-11T06:21:06.412Z,99541.84
2023-05-11T06:21:48.602Z,99553.91
2023-05-11T06:22:30.604Z,99550.88
2023-05-11T06:23:12.471Z,99554.75
2023-05-11T06:23:55.871Z,99509.31
2023-05-11T06:24:38.023Z,99561.31
2023-05-11T06:25:21.299Z,99544.94
2023-05-11T06:26:03.189Z,99505.00
2023-05-11T06:26:46.907Z,99560.28
2023-05-11T06:27:30.123Z,99519.75
2023-05-11T06:28:12.837Z,99552.31
2023-05-11T06:28:54.503Z,99548.41
2023-05-11T06:29:38.844Z,99555.38
2023-05-11T06:30:23.471Z,99541.84
2023-05-11T06:31:07.533Z,99541.03
2023-05-11T06:31:52.894Z,99553.75
2023-05-11T06:32:37.712Z,99529.38
2023-05-11T06:33:20.330Z,99515.06
2023-05-11T06:34:01.939Z,99559.47
2023-05-11T06:34:44.294Z,99552.09
2023-05-11T06:35:28.588Z,99554.53
2023-05-11T06:36:14.221Z,99553.31
2023-05-11T06:36:59.211Z,99550.47
2023-05-11T06:37:42.914Z,99551.47
2023-05-11T06:38:24.659Z,99544.53
2023-05-11T06:39:09.995Z,99550.69
2023-05-11T06:39:54.659Z,99498.50
2023-05-11T06:40:37.129Z,99544.75
2023-05-11T06:41:22.407Z,99548.22
2023-05-11T06:42:06.598Z,99556.22
2023-05-11T06:42:48.668Z,99540.63
2023-05-11T06:43:33.412Z,99548.84
2023-05-11T06:44:17.189Z,99540.84
2023-05-11T06:45:00.833Z,99543.94
2023-05-11T06:45:46.727Z,99535.53
2023-05-11T06:46:29.508Z,99550.03
2023-05-11T06:47:19.632Z,99537.75
2023-05-11T06:48:04.525Z,99547.19
2023-05-11T06:48:46.122Z,99550.88
2023-05-11T06:49:28.209Z,99534.31
2023-05-11T06:50:10.442Z,99552.09
2023-05-11T06:50:52.776Z,99539.41
2023-05-11T06:51:34.578Z,99547.38
2023-05-11T06:52:16.215Z,99539.22
2023-05-11T06:53:00.368Z,99535.09
2023-05-11T06:53:44.436Z,99552.53
2023-05-11T06:54:26.063Z,99540.63
2023-05-11T06:55:08.158Z,99523.25
2023-05-11T06:55:54.529Z,99513.03
2023-05-11T06:56:37.179Z,99540.03
2023-05-11T06:57:21.301Z,99548.22
2023-05-11T06:58:05.579Z,99553.75
2023-05-11T06:58:47.170Z,99554.97
2023-05-11T06:59:32.445Z,99509.13
2023-05-11T07:00:14.582Z,99492.56
2023-05-11T07:00:56.687Z,99550.69
2023-05-11T07:01:38.656Z,99533.88
2023-05-11T07:02:20.315Z,99554.13
2023-05-11T07:03:01.983Z,99552.72
2023-05-11T07:03:48.983Z,99542.88
2023-05-11T07:04:30.825Z,99554.97
2023-05-11T07:05:12.944Z,99553.94
2023-05-11T07:05:55.536Z,99552.53
2023-05-11T07:06:40.133Z,99532.25
2023-05-11T07:07:22.683Z,99531.66
2023-05-11T07:08:04.923Z,99557.03
2023-05-11T07:08:46.525Z,99563.16
2023-05-11T07:09:28.300Z,99556.00
2023-05-11T07:10:10.451Z,99493.41
2023-05-11T07:10:52.325Z,99559.88
2023-05-11T07:11:33.934Z,99561.31
2023-05-11T07:12:15.796Z,99555.81
2023-05-11T07:12:57.516Z,99549.22
2023-05-11T07:13:39.206Z,99559.50
2023-05-11T07:14:23.473Z,99514.25
2023-05-11T07:15:05.505Z,99548.22
2023-05-11T07:15:47.243Z,99559.09
2023-05-11T07:16:29.099Z,99552.94
2023-05-11T07:17:10.941Z,99568.31
2023-05-11T07:17:53.516Z,99556.19
2023-05-11T07:18:35.260Z,99563.34
2023-05-11T07:19:16.839Z,99561.13
2023-05-11T07:19:58.446Z,99548.19
2023-05-11T07:20:43.037Z,99553.53
2023-05-11T07:21:24.789Z,99561.50
2023-05-11T07:22:06.459Z,99558.25
2023-05-11T07:22:48.149Z,99551.69
2023-05-11T07:23:29.723Z,99561.94
2023-05-11T07:24:11.345Z,99565.19
2023-05-11T07:24:52.918Z,99560.09
2023-05-11T07:25:36.170Z,99560.50
2023-05-11T07:26:17.879Z,99564.97
2023-05-11T07:27:02.120Z,99567.25
2023-05-11T07:27:44.475Z,99568.28
2023-05-11T07:28:26.149Z,99560.88
2023-05-11T07:29:07.709Z,99556.00
2023-05-11T07:29:49.319Z,99561.53
2023-05-11T07:30:30.936Z,99568.47
2023-05-11T07:31:12.671Z,99567.06
2023-05-11T07:31:54.425Z,99565.84
2023-05-11T07:32:36.203Z,99561.31
2023-05-11T07:33:17.842Z,99535.94
2023-05-11T07:33:59.925Z,99521.59
2023-05-11T07:34:41.619Z,99569.50
2023-05-11T07:35:25.864Z,99564.81
2023-05-11T07:36:10.310Z,99569.31
2023-05-11T07:36:55.082Z,99550.25
2023-05-11T07:37:36.672Z,99576.25
2023-05-11T07:38:23.902Z,99568.25
2023-05-11T07:39:05.472Z,99566.81
2023-05-11T07:39:47.737Z,99565.59
2023-05-11T07:40:29.356Z,99562.72
2023-05-11T07:41:12.618Z,99562.94
2023-05-11T07:41:54.542Z,99562.53
2023-05-11T07:42:36.124Z,99566.59
2023-05-11T07:43:17.748Z,99554.53
2023-05-11T07:44:00.974Z,99558.81
2023-05-11T07:44:42.965Z,99548.78
2023-05-11T07:45:24.599Z,99560.03
2023-05-11T07:46:06.345Z,99563.91
2023-05-11T07:46:51.092Z,99553.50
2023-05-11T07:47:35.157Z,99571.47
2023-05-11T07:48:18.298Z,99562.88
2023-05-11T07:49:07.533Z,99527.75
2023-05-11T07:49:58.700Z,99558.41
2023-05-11T07:50:41.122Z,99552.06
2023-05-11T07:51:22.710Z,99557.19
2023-05-11T07:52:04.404Z,99567.00
2023-05-11T07:52:46.057Z,99564.75
2023-05-11T07:53:27.785Z,99563.72
2023-05-11T07:54:09.556Z,99562.09
2023-05-11T07:54:51.187Z,99570.28
2023-05-11T07:55:33.290Z,99567.81
2023-05-11T07:56:14.885Z,99572.53
2023-05-11T07:56:56.943Z,99544.91
2023-05-11T07:57:38.561Z,99550.63
2023-05-11T07:58:20.161Z,99518.13
2023-05-11T07:59:01.834Z,99563.53
2023-05-11T07:59:43.498Z,99572.94
2023-05-11T08:00:25.263Z,99565.16
2023-05-11T08:01:08.537Z,99555.16
2023-05-11T08:01:50.264Z,99554.13
2023-05-11T08:02:31.956Z,99556.38
2023-05-11T08:03:16.637Z,99545.13
2023-05-11T08:03:58.275Z,99571.09
2023-05-11T08:04:43.150Z,99548.81
2023-05-11T08:05:24.991Z,99553.69
2023-05-11T08:06:07.654Z,99556.78
2023-05-11T08:06:49.664Z,99551.44
2023-05-11T08:07:31.303Z,99571.31
2023-05-11T08:08:13.029Z,99572.75
2023-05-11T08:08:54.734Z,99573.78
2023-05-11T08:09:36.950Z,99563.94
2023-05-11T08:10:18.652Z,99576.22
2023-05-11T08:11:01.354Z,99577.66
2023-05-11T08:11:45.823Z,99576.41
2023-05-11T08:12:28.717Z,99573.13
2023-05-11T08:13:10.883Z,99562.72
2023-05-11T08:13:52.700Z,99551.25
2023-05-11T08:14:34.324Z,99559.84
2023-05-11T08:15:18.856Z,99574.59
2023-05-11T08:16:00.794Z,99531.63
2023-05-11T08:16:43.096Z,99573.34
2023-05-11T08:17:24.860Z,99561.72
2023-05-11T08:18:06.802Z,99559.47
2023-05-11T08:18:48.542Z,99565.19
2023-05-11T08:19:32.726Z,99575.03
2023-05-11T08:20:14.463Z,99568.47
2023-05-11T08:20:56.069Z,99570.53
2023-05-11T08:21:37.632Z,99563.16
2023-05-11T08:22:19.383Z,99550.88
2023-05-11T08:23:01.108Z,99575.66
2023-05-11T08:23:44.626Z,99566.44
2023-05-11T08:24:27.069Z,99571.16
2023-05-11T08:25:11.100Z,99576.69
2023-05-11T08:25:54.565Z,99560.28
2023-05-11T08:26:36.211Z,99566.41
2023-05-11T08:27:17.859Z,99553.94
2023-05-11T08:27:59.468Z,99555.59
2023-05-11T08:28:41.092Z,99564.78
2023-05-11T08:29:22.734Z,99570.91
2023-05-11T08:30:06.112Z,99570.50
2023-05-11T08:30:57.147Z,99579.50
2023-05-11T08:31:41.815Z,99554.91
2023-05-11T08:32:27.146Z,99566.81
2023-05-11T08:33:29.072Z,99581.16
2023-05-11T08:34:18.626Z,99566.00
2023-05-11T08:35:01.355Z,99576.44